aviador You're here:

KEVM Decoded Metar

EVELETH MUNI in MN, USA
Report Time2018-05-25 09:02:00
UTC Time2018-05-25 09:09:50
Flight Rules vfr VFR
Wind200° at 04 kt
W.Decomp.*RWY 14: 2.0 kt HW 3.5 kt RCW
RWY 27: 1.4 kt HW 3.8 kt LCW
W.Rank200° ranks 11
Current wind is below 200° avg. (7.4)
Visibility9999 m
Phenomena:N/A
Clouds:N/A
Expected CloudBase > 800 ft AGL from Temp-Dew spread
CeilingNone
Temp18°C (ISA +6)
Dew Point16°C (88% RH)
QNH1008 hPa
Density Alt2,470 ft
Elevation1,381 ft
Report Wrong Elevation
Raw Report
KEVM 250902Z AUTO 20004KT 10SM CLR 18/16 A2977 RMK AO2=

Extra information for KEVM:More info

Metar Taf Metar & Taf Last 4 Metars F.Rules Stats Wind Profile Meteogram Temp Stats Airport Information Weather charts Add Link Nearby VenuesMetar ALERT Operation Metar Decoded Social comments

AIRNAV info for KEVM